Time;durP1;ratioP1;P1;durP2;ratioP2;P2;SDS_P1;SDS_P2;PMS_P1;PMS_P2;Temp;Humidity;BMP_temperature;BMP_pressure;BME280_temperature;BME280_humidity;BME280_pressure;Samples;Min_cycle;Max_cycle;Signal;HPM_P1;HPM_P2
2021/03/28 00:00:53;;;;;;;;;;;21.10;99.20;;;;;;4941768;29;19983;-87
2021/03/28 00:03:40;;;;;;;;;;;21.10;99.40;;;;;;4958157;29;20392;-80
2021/03/28 00:06:27;;;;;;;;;;;21.10;99.90;;;;;;4941197;29;19915;-84
2021/03/28 00:09:12;;;;;;;;;;;21.30;99.60;;;;;;4938982;29;20389;-80
2021/03/28 00:11:58;;;;;;;;;;;21.30;98.80;;;;;;4957436;29;19987;-80
2021/03/28 00:14:36;;;;;;;;;;;21.30;99.00;;;;;;4963451;29;19914;-80
2021/03/28 00:17:06;;;;;;;;;;;21.50;98.00;;;;;;4973512;29;19945;-81
2021/03/28 00:19:35;;;;;;;;;;;21.60;98.00;;;;;;4957225;29;19914;-80
2021/03/28 00:22:07;;;;;;;;;;;21.50;98.10;;;;;;4937203;29;19918;-81
2021/03/28 00:24:50;;;;;;;;;;;21.60;98.00;;;;;;4948272;29;20373;-82
2021/03/28 00:27:18;;;;;;;;;;;21.50;97.70;;;;;;4940545;29;20012;-82
2021/03/28 00:29:45;;;;;;;;;;;21.50;96.90;;;;;;4956670;29;19919;-82
2021/03/28 00:32:16;;;;;;;;;;;21.40;97.00;;;;;;4939849;29;20259;-82
2021/03/28 00:34:47;;;;;;;;;;;21.50;97.50;;;;;;4957072;29;19914;-85
2021/03/28 00:37:15;;;;;;;;;;;21.60;97.10;;;;;;4957144;29;19962;-82
2021/03/28 00:39:41;;;;;;;;;;;21.60;97.30;;;;;;4939980;29;20373;-81
2021/03/28 00:42:27;;;;;;;;;;;21.70;96.90;;;;;;4940355;29;20305;-85
2021/03/28 00:44:56;;;;;;;;;;;21.70;97.30;;;;;;4956819;28;19921;-84
2021/03/28 00:47:25;;;;;;;;;;;21.70;96.70;;;;;;4957319;29;19914;-81
2021/03/28 00:50:06;;;;;;;;;;;21.80;96.80;;;;;;4941778;29;19915;-86
2021/03/28 00:52:35;;;;;;;;;;;21.80;96.60;;;;;;4949611;29;20279;-81
2021/03/28 00:55:18;;;;;;;;;;;21.80;96.30;;;;;;4939759;29;20017;-83
2021/03/28 00:57:47;;;;;;;;;;;21.90;96.00;;;;;;4957958;29;19910;-81
2021/03/28 01:00:32;;;;;;;;;;;22.00;96.70;;;;;;4957680;29;19957;-88
2021/03/28 01:03:04;;;;;;;;;;;22.00;96.20;;;;;;4957707;29;19914;-81
2021/03/28 01:05:49;;;;;;;;;;;22.10;95.50;;;;;;4940301;29;20018;-81
2021/03/28 01:08:24;;;;;;;;;;;22.20;95.80;;;;;;4956712;29;19969;-82
2021/03/28 01:10:58;;;;;;;;;;;22.30;94.80;;;;;;4955798;29;19923;-81
2021/03/28 01:13:25;;;;;;;;;;;22.30;94.70;;;;;;4956976;29;19914;-84
2021/03/28 01:16:10;;;;;;;;;;;22.40;94.70;;;;;;4947328;29;19922;-80
2021/03/28 01:18:49;;;;;;;;;;;22.60;94.30;;;;;;4966820;29;19977;-79
2021/03/28 01:21:19;;;;;;;;;;;23.10;93.60;;;;;;4947418;29;20673;-81
2021/03/28 01:23:53;;;;;;;;;;;23.40;93.20;;;;;;4957204;29;19914;-81
2021/03/28 01:26:38;;;;;;;;;;;24.00;92.50;;;;;;4955758;29;19953;-83
2021/03/28 01:29:34;;;;;;;;;;;24.00;92.40;;;;;;4964475;29;19919;-80
2021/03/28 01:32:07;;;;;;;;;;;24.30;91.80;;;;;;4873501;29;20269;-81
2021/03/28 01:34:44;;;;;;;;;;;24.60;90.50;;;;;;4928476;29;20333;-83
2021/03/28 01:37:15;;;;;;;;;;;24.70;89.40;;;;;;4938569;29;19915;-82
2021/03/28 01:39:48;;;;;;;;;;;24.60;90.70;;;;;;4935447;29;19911;-81
2021/03/28 01:42:39;;;;;;;;;;;24.50;89.20;;;;;;4937467;29;19943;-80
2021/03/28 01:45:10;;;;;;;;;;;24.00;90.80;;;;;;4943343;29;19914;-80
2021/03/28 01:47:37;;;;;;;;;;;23.80;90.90;;;;;;4938868;29;19914;-78
2021/03/28 01:50:06;;;;;;;;;;;23.60;91.10;;;;;;4935374;29;19967;-81
2021/03/28 01:52:38;;;;;;;;;;;23.50;91.30;;;;;;4935288;29;19919;-80
2021/03/28 01:55:14;;;;;;;;;;;23.50;91.50;;;;;;4942670;28;19910;-82
2021/03/28 01:58:00;;;;;;;;;;;23.50;90.60;;;;;;4955769;29;19919;-77
2021/03/28 02:00:34;;;;;;;;;;;23.50;90.00;;;;;;4934683;29;20256;-77
2021/03/28 02:03:19;;;;;;;;;;;23.50;89.00;;;;;;4956140;29;19919;-80
2021/03/28 02:05:53;;;;;;;;;;;23.60;90.00;;;;;;4934458;29;19925;-78
2021/03/28 02:08:40;;;;;;;;;;;23.70;89.10;;;;;;4949722;29;19977;-82
2021/03/28 02:11:25;;;;;;;;;;;23.70;87.90;;;;;;4925803;29;20400;-76
2021/03/28 02:14:04;;;;;;;;;;;23.70;88.30;;;;;;4955691;29;19910;-78
2021/03/28 02:16:46;;;;;;;;;;;23.60;89.30;;;;;;4955293;29;19915;-79
2021/03/28 02:19:17;;;;;;;;;;;23.60;83.60;;;;;;4955449;29;19921;-78
2021/03/28 02:21:44;;;;;;;;;;;23.60;89.00;;;;;;4955004;29;19910;-79
2021/03/28 02:24:18;;;;;;;;;;;23.50;81.90;;;;;;4934889;29;20372;-77
2021/03/28 02:26:46;;;;;;;;;;;23.60;80.90;;;;;;4954760;29;19940;-79
2021/03/28 02:29:26;;;;;;;;;;;23.60;80.00;;;;;;4937253;29;20277;-79
2021/03/28 02:32:01;;;;;;;;;;;23.50;80.10;;;;;;4955184;29;19966;-81
2021/03/28 02:34:36;;;;;;;;;;;23.50;79.90;;;;;;4934696;29;20393;-77
2021/03/28 02:37:18;;;;;;;;;;;23.70;86.10;;;;;;4934474;29;19911;-81
2021/03/28 02:39:48;;;;;;;;;;;23.70;94.30;;;;;;4947616;29;19978;-80
2021/03/28 02:42:27;;;;;;;;;;;23.70;94.90;;;;;;4955397;29;19917;-86
2021/03/28 02:45:03;;;;;;;;;;;23.70;95.00;;;;;;4938198;29;19938;-80
2021/03/28 02:47:30;;;;;;;;;;;23.60;95.30;;;;;;4926310;29;20350;-76
2021/03/28 02:50:15;;;;;;;;;;;23.50;95.70;;;;;;4952884;29;19961;-83
2021/03/28 02:52:58;;;;;;;;;;;23.30;95.50;;;;;;4952523;29;19918;-86
2021/03/28 02:55:43;;;;;;;;;;;23.20;96.70;;;;;;4936959;29;19910;-88
2021/03/28 02:58:10;;;;;;;;;;;23.20;96.60;;;;;;4955146;29;20005;-85
2021/03/28 03:00:41;;;;;;;;;;;23.20;96.70;;;;;;4938417;29;19915;-78
2021/03/28 03:03:23;;;;;;;;;;;22.90;97.40;;;;;;4955066;29;19914;-81
2021/03/28 03:05:57;;;;;;;;;;;22.80;97.60;;;;;;4955203;29;19910;-79
2021/03/28 03:08:32;;;;;;;;;;;22.80;98.30;;;;;;4954181;28;19978;-83
2021/03/28 03:11:11;;;;;;;;;;;22.70;98.20;;;;;;4954924;29;20492;-82
2021/03/28 03:13:59;;;;;;;;;;;22.80;97.50;;;;;;4957067;29;19915;-88
2021/03/28 03:16:44;;;;;;;;;;;22.70;97.70;;;;;;4955958;29;19941;-82
2021/03/28 03:19:35;;;;;;;;;;;22.60;97.50;;;;;;4936505;29;20009;-78
2021/03/28 03:22:02;;;;;;;;;;;22.50;98.00;;;;;;4947378;29;19918;-85
2021/03/28 03:24:38;;;;;;;;;;;22.50;98.40;;;;;;4939861;29;19915;-78
2021/03/28 03:27:05;;;;;;;;;;;22.50;98.20;;;;;;4935546;29;20384;-84
2021/03/28 03:29:50;;;;;;;;;;;22.40;97.60;;;;;;4948546;29;19921;-83
2021/03/28 03:32:17;;;;;;;;;;;22.40;97.40;;;;;;4954877;29;20296;-77
2021/03/28 03:34:56;;;;;;;;;;;22.30;97.40;;;;;;4937583;29;20166;-76
2021/03/28 03:37:41;;;;;;;;;;;22.40;97.50;;;;;;4953760;29;19962;-77
2021/03/28 03:40:17;;;;;;;;;;;22.50;98.00;;;;;;4937214;29;19915;-81
2021/03/28 03:42:43;;;;;;;;;;;22.70;97.00;;;;;;4954695;29;19915;-77
2021/03/28 03:45:13;;;;;;;;;;;22.60;97.80;;;;;;4954543;29;19915;-80
2021/03/28 03:47:43;;;;;;;;;;;22.60;97.60;;;;;;4933255;29;20017;-82
2021/03/28 03:50:28;;;;;;;;;;;22.70;97.80;;;;;;4933728;29;20306;-81
2021/03/28 03:53:05;;;;;;;;;;;22.90;97.50;;;;;;4951067;29;19961;-88
2021/03/28 03:55:32;;;;;;;;;;;23.00;97.10;;;;;;4951131;29;19986;-81
2021/03/28 03:58:21;;;;;;;;;;;22.80;97.10;;;;;;4954556;29;19910;-81
2021/03/28 04:01:08;;;;;;;;;;;22.90;97.50;;;;;;4941661;29;19926;-82
2021/03/28 04:03:44;;;;;;;;;;;23.00;97.40;;;;;;4919307;29;19923;-81
2021/03/28 04:06:23;;;;;;;;;;;22.80;97.50;;;;;;4945442;29;19997;-82
2021/03/28 04:09:09;;;;;;;;;;;22.70;97.90;;;;;;4924034;29;19915;-76
2021/03/28 04:11:47;;;;;;;;;;;22.60;98.30;;;;;;4954083;29;19922;-83
2021/03/28 04:14:31;;;;;;;;;;;22.70;97.70;;;;;;4934408;29;19941;-81
2021/03/28 04:16:57;;;;;;;;;;;22.70;98.10;;;;;;4940003;29;20452;-82
2021/03/28 04:19:24;;;;;;;;;;;22.70;97.70;;;;;;4945353;28;19969;-77
2021/03/28 04:22:03;;;;;;;;;;;22.80;97.60;;;;;;4956603;29;19910;-77
2021/03/28 04:24:48;;;;;;;;;;;22.80;96.90;;;;;;4950224;29;19985;-77
2021/03/28 04:27:34;;;;;;;;;;;22.70;97.20;;;;;;4951016;29;20030;-76
2021/03/28 04:30:01;;;;;;;;;;;22.60;96.50;;;;;;4945580;29;20424;-82
2021/03/28 04:32:34;;;;;;;;;;;22.50;96.90;;;;;;4957663;28;20333;-78
2021/03/28 04:35:19;;;;;;;;;;;22.40;96.90;;;;;;4958365;28;19989;-79
2021/03/28 04:37:58;;;;;;;;;;;22.30;97.50;;;;;;4958116;29;19950;-78
2021/03/28 04:40:31;;;;;;;;;;;22.20;97.10;;;;;;4955895;28;19915;-78
2021/03/28 04:43:03;;;;;;;;;;;22.20;97.60;;;;;;4956194;29;19915;-77
2021/03/28 04:45:39;;;;;;;;;;;22.20;97.70;;;;;;4957260;29;19910;-78
2021/03/28 04:48:24;;;;;;;;;;;22.10;97.90;;;;;;4946536;29;19919;-80
2021/03/28 04:51:05;;;;;;;;;;;22.30;98.20;;;;;;4958240;29;19922;-81
2021/03/28 04:53:46;;;;;;;;;;;22.50;97.50;;;;;;4951650;29;19914;-77
2021/03/28 04:56:13;;;;;;;;;;;22.60;97.00;;;;;;4937687;29;19914;-81
2021/03/28 04:58:40;;;;;;;;;;;22.60;96.90;;;;;;4937925;29;19911;-84
2021/03/28 05:01:25;;;;;;;;;;;22.60;96.70;;;;;;4935569;29;19910;-81
2021/03/28 05:04:13;;;;;;;;;;;22.50;97.00;;;;;;4947907;29;19961;-79
2021/03/28 05:06:58;;;;;;;;;;;22.80;95.90;;;;;;4956951;28;19910;-81
2021/03/28 05:09:33;;;;;;;;;;;22.70;95.90;;;;;;4951440;28;19914;-80
2021/03/28 05:12:12;;;;;;;;;;;22.50;95.40;;;;;;4954514;29;19940;-80
2021/03/28 05:14:57;;;;;;;;;;;22.50;95.60;;;;;;4954801;29;19915;-80
2021/03/28 05:17:33;;;;;;;;;;;22.50;95.40;;;;;;4939334;29;19923;-77
2021/03/28 05:20:21;;;;;;;;;;;22.50;96.10;;;;;;4936953;29;19914;-79
2021/03/28 05:23:23;;;;;;;;;;;22.50;96.70;;;;;;4944492;29;20054;-79
2021/03/28 05:26:07;;;;;;;;;;;22.60;96.20;;;;;;4876741;29;20051;-80
2021/03/28 05:28:52;;;;;;;;;;;22.60;96.50;;;;;;4934261;29;19966;-79
2021/03/28 05:31:28;;;;;;;;;;;22.50;96.30;;;;;;4950676;29;19922;-80
2021/03/28 05:34:13;;;;;;;;;;;22.40;97.00;;;;;;4956202;29;19918;-81
2021/03/28 05:36:51;;;;;;;;;;;22.50;96.30;;;;;;4952072;29;19918;-79
2021/03/28 05:39:24;;;;;;;;;;;22.50;95.50;;;;;;4955657;29;19910;-79
2021/03/28 05:41:50;;;;;;;;;;;22.40;95.30;;;;;;4938766;29;20354;-80
2021/03/28 05:44:35;;;;;;;;;;;22.30;95.80;;;;;;4947577;29;19915;-81
2021/03/28 05:47:02;;;;;;;;;;;22.20;96.30;;;;;;4939151;29;19922;-85
2021/03/28 05:49:32;;;;;;;;;;;22.30;96.70;;;;;;4955821;29;19936;-84
2021/03/28 05:51:58;;;;;;;;;;;22.30;95.80;;;;;;4955500;29;20021;-79
2021/03/28 05:54:53;;;;;;;;;;;22.40;96.10;;;;;;4948642;29;19914;-84
2021/03/28 05:57:23;;;;;;;;;;;22.40;95.30;;;;;;4937777;29;19911;-78
2021/03/28 06:00:08;;;;;;;;;;;22.40;94.40;;;;;;4937397;29;19918;-86
2021/03/28 06:02:52;;;;;;;;;;;22.30;94.60;;;;;;4955639;29;20013;-84
2021/03/28 06:05:22;;;;;;;;;;;22.20;95.80;;;;;;4923938;29;20401;-79
2021/03/28 06:08:07;;;;;;;;;;;22.10;95.70;;;;;;4955727;29;19921;-79
2021/03/28 06:11:00;;;;;;;;;;;22.20;95.00;;;;;;4930489;29;20437;-83
2021/03/28 06:13:30;;;;;;;;;;;22.20;94.60;;;;;;4935572;29;20378;-81
2021/03/28 06:16:18;;;;;;;;;;;22.20;94.80;;;;;;4945290;29;19918;-81
2021/03/28 06:19:01;;;;;;;;;;;22.10;94.40;;;;;;4953692;29;19961;-79
2021/03/28 06:21:27;;;;;;;;;;;22.20;94.20;;;;;;4955358;29;19921;-80
2021/03/28 06:24:26;;;;;;;;;;;22.10;93.20;;;;;;4936804;29;20184;-78
2021/03/28 06:26:56;;;;;;;;;;;22.20;94.20;;;;;;4901764;29;19917;-78
2021/03/28 06:29:41;;;;;;;;;;;22.20;94.40;;;;;;4935518;29;19911;-79
2021/03/28 06:32:07;;;;;;;;;;;22.20;94.10;;;;;;4944784;29;19918;-78
2021/03/28 06:34:52;;;;;;;;;;;22.20;93.00;;;;;;4937834;29;19910;-78
2021/03/28 06:37:37;;;;;;;;;;;22.20;92.90;;;;;;4955112;29;20013;-79
2021/03/28 06:40:28;;;;;;;;;;;22.20;95.00;;;;;;4955893;29;20380;-78
2021/03/28 06:43:16;;;;;;;;;;;22.10;96.10;;;;;;4954416;28;19917;-80
2021/03/28 06:46:09;;;;;;;;;;;22.10;97.40;;;;;;4937707;29;19918;-80
2021/03/28 06:48:43;;;;;;;;;;;22.00;98.30;;;;;;4955448;29;19961;-78
2021/03/28 06:51:25;;;;;;;;;;;21.90;98.70;;;;;;4932467;29;19914;-80
2021/03/28 06:54:10;;;;;;;;;;;21.90;99.10;;;;;;4943657;29;19914;-80
2021/03/28 06:56:48;;;;;;;;;;;21.90;99.40;;;;;;4951762;29;19981;-83
2021/03/28 06:59:24;;;;;;;;;;;21.90;99.50;;;;;;4953771;29;20304;-79
2021/03/28 07:01:52;;;;;;;;;;;21.90;99.90;;;;;;4933244;29;19914;-80
2021/03/28 07:04:37;;;;;;;;;;;21.70;99.90;;;;;;4936733;29;19915;-80
2021/03/28 07:07:04;;;;;;;;;;;21.70;99.80;;;;;;4951591;29;19918;-83
2021/03/28 07:09:46;;;;;;;;;;;21.70;99.90;;;;;;4948814;29;19930;-79
2021/03/28 07:12:16;;;;;;;;;;;21.60;99.90;;;;;;4955635;29;19918;-84
2021/03/28 07:15:00;;;;;;;;;;;21.50;99.90;;;;;;4955975;29;19919;-77
2021/03/28 07:17:30;;;;;;;;;;;21.50;99.90;;;;;;4954677;29;19962;-82
2021/03/28 07:20:15;;;;;;;;;;;21.40;99.90;;;;;;4955666;29;19918;-81
2021/03/28 07:22:52;;;;;;;;;;;21.40;99.90;;;;;;4952095;29;19922;-77
2021/03/28 07:25:20;;;;;;;;;;;21.40;99.90;;;;;;4949030;29;19914;-81
2021/03/28 07:27:46;;;;;;;;;;;21.40;99.70;;;;;;4953010;29;19968;-82
2021/03/28 07:30:28;;;;;;;;;;;21.40;99.90;;;;;;4945813;29;19961;-78
2021/03/28 07:33:01;;;;;;;;;;;21.40;99.60;;;;;;4962611;29;19918;-78
2021/03/28 07:35:37;;;;;;;;;;;21.40;99.80;;;;;;4962117;29;19910;-76
2021/03/28 07:38:29;;;;;;;;;;;21.30;99.70;;;;;;4955726;29;19922;-78
2021/03/28 07:41:10;;;;;;;;;;;21.20;99.90;;;;;;4934987;29;19990;-79
2021/03/28 07:43:58;;;;;;;;;;;21.20;99.90;;;;;;4937087;29;20013;-78
2021/03/28 07:46:25;;;;;;;;;;;21.10;99.90;;;;;;4935719;29;20299;-79
2021/03/28 07:49:09;;;;;;;;;;;21.20;99.90;;;;;;4953947;29;19915;-84
2021/03/28 07:51:39;;;;;;;;;;;21.10;99.90;;;;;;4946824;29;20281;-82
2021/03/28 07:54:12;;;;;;;;;;;21.20;99.90;;;;;;4937806;29;20037;-78
2021/03/28 07:56:44;;;;;;;;;;;21.20;99.90;;;;;;4953930;29;19994;-80
2021/03/28 07:59:20;;;;;;;;;;;21.20;99.90;;;;;;4935579;29;19915;-82
2021/03/28 08:02:05;;;;;;;;;;;21.10;99.90;;;;;;4958109;29;19911;-79
2021/03/28 08:04:38;;;;;;;;;;;21.10;99.90;;;;;;4957021;29;19922;-79
2021/03/28 08:07:27;;;;;;;;;;;21.10;99.90;;;;;;4934735;29;19948;-81
2021/03/28 08:09:57;;;;;;;;;;;21.00;99.90;;;;;;4951205;29;19910;-78
2021/03/28 08:12:29;;;;;;;;;;;21.00;99.90;;;;;;4960583;29;19918;-76
2021/03/28 08:15:14;;;;;;;;;;;21.00;99.90;;;;;;4962570;29;19946;-77
2021/03/28 08:17:52;;;;;;;;;;;20.90;99.90;;;;;;4958100;29;19922;-80
2021/03/28 08:20:28;;;;;;;;;;;20.90;99.90;;;;;;4957688;29;19911;-78
2021/03/28 08:23:13;;;;;;;;;;;20.90;99.90;;;;;;4957290;29;20273;-79
2021/03/28 08:25:42;;;;;;;;;;;21.00;99.90;;;;;;4956996;29;19957;-78
2021/03/28 08:28:21;;;;;;;;;;;20.90;99.90;;;;;;4939870;29;19919;-82
2021/03/28 08:31:11;;;;;;;;;;;20.80;99.90;;;;;;4952521;29;19965;-80
2021/03/28 08:34:01;;;;;;;;;;;20.80;99.90;;;;;;4911664;29;19946;-80
2021/03/28 08:36:43;;;;;;;;;;;20.80;99.90;;;;;;4952233;29;19919;-80
2021/03/28 08:39:39;;;;;;;;;;;20.80;99.90;;;;;;4936540;29;20341;-78
2021/03/28 08:42:12;;;;;;;;;;;20.90;99.90;;;;;;4956556;29;19925;-79
2021/03/28 08:44:39;;;;;;;;;;;20.80;99.90;;;;;;4956431;29;19969;-79
2021/03/28 08:47:37;;;;;;;;;;;20.80;99.90;;;;;;4938695;29;20373;-80
2021/03/28 08:50:18;;;;;;;;;;;20.80;99.90;;;;;;4904262;29;19910;-78
2021/03/28 08:52:54;;;;;;;;;;;20.70;99.90;;;;;;4955119;29;19925;-82
2021/03/28 08:55:43;;;;;;;;;;;20.70;99.90;;;;;;4955219;29;19997;-81
2021/03/28 08:58:45;;;;;;;;;;;20.70;99.90;;;;;;4939313;29;19914;-80
2021/03/28 09:01:16;;;;;;;;;;;20.70;99.90;;;;;;4952867;29;19918;-79
2021/03/28 09:04:02;;;;;;;;;;;20.60;99.90;;;;;;4935246;29;19985;-81
2021/03/28 09:06:50;;;;;;;;;;;20.70;99.90;;;;;;4948576;29;19946;-80
2021/03/28 09:09:23;;;;;;;;;;;20.60;99.90;;;;;;4954280;28;19925;-79
2021/03/28 09:12:07;;;;;;;;;;;20.60;99.90;;;;;;4951509;29;19922;-83
2021/03/28 09:15:03;;;;;;;;;;;20.60;99.90;;;;;;4953212;29;20369;-79
2021/03/28 09:17:41;;;;;;;;;;;20.50;99.90;;;;;;4915446;29;19958;-82
2021/03/28 09:20:10;;;;;;;;;;;20.50;99.90;;;;;;4929372;29;19990;-79
2021/03/28 09:22:51;;;;;;;;;;;20.50;99.90;;;;;;4930059;29;20341;-79
2021/03/28 09:25:23;;;;;;;;;;;20.50;99.90;;;;;;4936392;29;19919;-82
2021/03/28 09:27:59;;;;;;;;;;;20.50;99.90;;;;;;4954037;29;19910;-81
2021/03/28 09:30:26;;;;;;;;;;;20.50;99.90;;;;;;4953265;29;19922;-81
2021/03/28 09:33:10;;;;;;;;;;;20.50;99.90;;;;;;4953967;29;19918;-80
2021/03/28 09:35:49;;;;;;;;;;;20.50;99.90;;;;;;4953860;29;20326;-79
2021/03/28 09:38:34;;;;;;;;;;;20.50;99.90;;;;;;4936820;29;20309;-78
2021/03/28 09:41:01;;;;;;;;;;;20.50;99.90;;;;;;4953197;29;19918;-81
2021/03/28 09:43:46;;;;;;;;;;;20.40;99.90;;;;;;4953036;29;19926;-80
2021/03/28 09:46:21;;;;;;;;;;;20.50;99.90;;;;;;4932287;29;20018;-79
2021/03/28 09:48:47;;;;;;;;;;;20.50;99.90;;;;;;4953640;29;19961;-78
2021/03/28 09:51:33;;;;;;;;;;;20.50;99.90;;;;;;4953716;29;19985;-79
2021/03/28 09:54:05;;;;;;;;;;;20.50;99.90;;;;;;4953959;29;19911;-79
2021/03/28 09:57:00;;;;;;;;;;;20.50;99.90;;;;;;4953597;29;19919;-78
2021/03/28 09:59:32;;;;;;;;;;;20.50;99.90;;;;;;4934972;29;20014;-78
2021/03/28 10:02:12;;;;;;;;;;;20.50;99.90;;;;;;4949196;29;19942;-78
2021/03/28 10:04:52;;;;;;;;;;;20.50;99.90;;;;;;4955757;29;20282;-79
2021/03/28 10:07:31;;;;;;;;;;;20.50;99.90;;;;;;4953198;29;20233;-78
2021/03/28 10:10:08;;;;;;;;;;;20.50;99.90;;;;;;4954399;29;19919;-79
2021/03/28 10:12:41;;;;;;;;;;;20.40;99.90;;;;;;4933790;29;19930;-78
2021/03/28 10:15:25;;;;;;;;;;;20.40;99.90;;;;;;4931477;29;19919;-78
2021/03/28 10:18:24;;;;;;;;;;;20.40;99.90;;;;;;4932368;29;19927;-77
2021/03/28 10:20:56;;;;;;;;;;;20.40;99.90;;;;;;4901225;29;19954;-77
2021/03/28 10:23:23;;;;;;;;;;;20.40;99.90;;;;;;4950091;29;19911;-77
2021/03/28 10:25:53;;;;;;;;;;;20.40;99.90;;;;;;4953111;29;19925;-77
2021/03/28 10:28:38;;;;;;;;;;;20.40;99.90;;;;;;4953499;29;19911;-78
2021/03/28 10:31:11;;;;;;;;;;;20.40;99.90;;;;;;4935680;29;19923;-79
2021/03/28 10:33:53;;;;;;;;;;;20.40;99.90;;;;;;4953168;29;20385;-79
2021/03/28 10:36:27;;;;;;;;;;;20.40;99.90;;;;;;4953396;29;19917;-77
2021/03/28 10:39:05;;;;;;;;;;;20.40;99.90;;;;;;4953832;29;19911;-79
2021/03/28 10:41:50;;;;;;;;;;;20.40;99.90;;;;;;4952888;29;20042;-84
2021/03/28 10:44:22;;;;;;;;;;;20.50;99.90;;;;;;4953526;29;19922;-80
2021/03/28 10:47:02;;;;;;;;;;;20.50;99.90;;;;;;4953240;29;19920;-80
2021/03/28 10:49:55;;;;;;;;;;;20.50;99.90;;;;;;4952304;29;19922;-77
2021/03/28 10:52:40;;;;;;;;;;;20.50;99.90;;;;;;4954765;29;19946;-81
2021/03/28 10:55:26;;;;;;;;;;;20.50;99.90;;;;;;4940820;29;19954;-78
2021/03/28 10:58:05;;;;;;;;;;;20.50;99.90;;;;;;4937835;29;19923;-80
2021/03/28 11:00:54;;;;;;;;;;;20.50;99.90;;;;;;4931243;29;20287;-84
2021/03/28 11:03:39;;;;;;;;;;;20.50;99.90;;;;;;4931056;29;19915;-79
2021/03/28 11:06:12;;;;;;;;;;;20.50;99.90;;;;;;4947069;29;19985;-78
2021/03/28 11:08:59;;;;;;;;;;;20.50;99.90;;;;;;4951683;29;20650;-83
2021/03/28 11:11:25;;;;;;;;;;;20.40;99.90;;;;;;4951106;29;19994;-81
2021/03/28 11:13:58;;;;;;;;;;;20.40;99.90;;;;;;4952589;29;20365;-83
2021/03/28 11:16:30;;;;;;;;;;;20.50;99.90;;;;;;4935805;29;20009;-81
2021/03/28 11:19:15;;;;;;;;;;;20.50;99.90;;;;;;4952840;29;19942;-77
2021/03/28 11:22:03;;;;;;;;;;;20.50;99.90;;;;;;4940760;29;19914;-77
2021/03/28 11:24:57;;;;;;;;;;;20.50;99.90;;;;;;4933788;29;19919;-78
2021/03/28 11:27:33;;;;;;;;;;;20.50;99.90;;;;;;4937706;29;19914;-79
2021/03/28 11:30:00;;;;;;;;;;;20.40;99.90;;;;;;4946827;29;19918;-77
2021/03/28 11:32:36;;;;;;;;;;;20.40;99.90;;;;;;4937297;29;20305;-78
2021/03/28 11:35:11;;;;;;;;;;;20.40;99.90;;;;;;4946178;29;19926;-78
2021/03/28 11:37:47;;;;;;;;;;;20.40;99.90;;;;;;4956569;29;19919;-78
2021/03/28 11:40:32;;;;;;;;;;;20.40;99.90;;;;;;4956438;29;20013;-80
2021/03/28 11:43:08;;;;;;;;;;;20.30;99.90;;;;;;4956513;29;19970;-82
2021/03/28 11:45:44;;;;;;;;;;;20.40;99.90;;;;;;4956646;29;19941;-79
2021/03/28 11:48:28;;;;;;;;;;;20.30;99.90;;;;;;4956174;29;20058;-79
2021/03/28 11:50:59;;;;;;;;;;;20.30;99.90;;;;;;4939518;29;19915;-78
2021/03/28 11:53:25;;;;;;;;;;;20.30;99.90;;;;;;4957535;29;19962;-77
2021/03/28 11:56:03;;;;;;;;;;;20.20;99.90;;;;;;4957688;29;19957;-78
2021/03/28 11:58:39;;;;;;;;;;;20.20;99.90;;;;;;4955498;29;20020;-76
2021/03/28 12:01:06;;;;;;;;;;;20.10;99.90;;;;;;4955901;29;20373;-76
2021/03/28 12:03:33;;;;;;;;;;;20.10;99.90;;;;;;4954831;29;19925;-76
2021/03/28 12:06:10;;;;;;;;;;;20.10;99.90;;;;;;4955725;29;19915;-77
2021/03/28 12:08:46;;;;;;;;;;;20.10;99.90;;;;;;4955810;29;19948;-78
2021/03/28 12:11:31;;;;;;;;;;;20.10;99.90;;;;;;4956052;29;19944;-78
2021/03/28 12:14:01;;;;;;;;;;;20.10;99.90;;;;;;4934723;29;20274;-77
2021/03/28 12:16:47;;;;;;;;;;;20.10;99.90;;;;;;4938832;29;19963;-79
2021/03/28 12:19:22;;;;;;;;;;;20.10;99.90;;;;;;4954664;28;20296;-79
2021/03/28 12:21:52;;;;;;;;;;;20.10;99.90;;;;;;4954436;29;19914;-79
2021/03/28 12:24:22;;;;;;;;;;;20.10;99.90;;;;;;4955749;28;19925;-79
2021/03/28 12:26:53;;;;;;;;;;;20.10;99.90;;;;;;4955729;29;19911;-77
2021/03/28 12:29:23;;;;;;;;;;;20.00;99.90;;;;;;4946035;29;20271;-76
2021/03/28 12:31:52;;;;;;;;;;;20.10;99.90;;;;;;4940840;29;20047;-79
2021/03/28 12:34:33;;;;;;;;;;;20.10;99.90;;;;;;4937960;29;20322;-79
2021/03/28 12:37:10;;;;;;;;;;;20.00;99.90;;;;;;4955429;29;19914;-76
2021/03/28 12:39:38;;;;;;;;;;;20.00;99.90;;;;;;4954743;28;19980;-78
2021/03/28 12:42:06;;;;;;;;;;;20.00;99.90;;;;;;4954496;28;19962;-76
2021/03/28 12:44:35;;;;;;;;;;;20.00;99.90;;;;;;4955054;29;20093;-79
2021/03/28 12:47:06;;;;;;;;;;;20.00;99.90;;;;;;4955489;29;19965;-77
2021/03/28 12:49:47;;;;;;;;;;;19.90;99.90;;;;;;4954685;29;20005;-77
2021/03/28 12:52:18;;;;;;;;;;;20.00;99.90;;;;;;4955199;28;20005;-77
2021/03/28 12:54:54;;;;;;;;;;;19.90;99.90;;;;;;4954993;28;20270;-78
2021/03/28 12:57:26;;;;;;;;;;;20.00;99.90;;;;;;4954769;29;19965;-80
2021/03/28 12:59:59;;;;;;;;;;;19.90;99.90;;;;;;4955148;29;19918;-80
2021/03/28 13:02:34;;;;;;;;;;;19.90;99.90;;;;;;4955378;28;19915;-80
2021/03/28 13:05:04;;;;;;;;;;;19.90;99.90;;;;;;4957108;28;19927;-82
2021/03/28 13:07:39;;;;;;;;;;;20.00;99.90;;;;;;4957170;29;19915;-76
2021/03/28 13:10:25;;;;;;;;;;;20.00;99.90;;;;;;4953180;29;20344;-79
2021/03/28 13:13:01;;;;;;;;;;;19.90;99.90;;;;;;4955951;29;19973;-79
2021/03/28 13:15:30;;;;;;;;;;;19.90;99.90;;;;;;4945437;29;20380;-80
2021/03/28 13:18:15;;;;;;;;;;;20.00;99.90;;;;;;4956616;29;19923;-83
2021/03/28 13:20:44;;;;;;;;;;;20.00;99.90;;;;;;4937961;29;19918;-83
2021/03/28 13:23:22;;;;;;;;;;;20.20;99.90;;;;;;4937792;29;20075;-80
2021/03/28 13:26:05;;;;;;;;;;;20.20;99.90;;;;;;4955187;29;19914;-80
2021/03/28 13:28:32;;;;;;;;;;;20.30;99.90;;;;;;4956245;29;20398;-80
2021/03/28 13:31:16;;;;;;;;;;;20.30;99.90;;;;;;4956909;29;19914;-82
2021/03/28 13:33:46;;;;;;;;;;;20.30;99.90;;;;;;4956668;29;19915;-82
2021/03/28 13:36:24;;;;;;;;;;;20.20;99.90;;;;;;4957164;29;20429;-81
2021/03/28 13:39:09;;;;;;;;;;;20.20;99.90;;;;;;4961702;29;19921;-78
2021/03/28 13:41:37;;;;;;;;;;;20.10;99.90;;;;;;4965569;29;19930;-82
2021/03/28 13:44:16;;;;;;;;;;;20.00;99.90;;;;;;4964835;29;19915;-79
2021/03/28 13:46:47;;;;;;;;;;;20.00;99.90;;;;;;4969774;29;19919;-78
2021/03/28 13:49:24;;;;;;;;;;;20.00;99.90;;;;;;4956667;29;19914;-84
2021/03/28 13:52:10;;;;;;;;;;;20.10;99.90;;;;;;4958830;28;19934;-81
2021/03/28 13:54:41;;;;;;;;;;;20.00;99.90;;;;;;4939891;29;19947;-82
2021/03/28 13:57:12;;;;;;;;;;;20.10;99.90;;;;;;4924504;29;19953;-79
2021/03/28 13:59:56;;;;;;;;;;;20.00;99.90;;;;;;4939074;29;19926;-82
2021/03/28 14:02:24;;;;;;;;;;;20.00;99.90;;;;;;4940190;29;19933;-78
2021/03/28 14:05:03;;;;;;;;;;;20.00;99.90;;;;;;4938728;29;19917;-81
2021/03/28 14:07:33;;;;;;;;;;;20.00;99.90;;;;;;4955820;29;19910;-79
2021/03/28 14:09:59;;;;;;;;;;;20.00;99.90;;;;;;4956024;29;20017;-78
2021/03/28 14:12:42;;;;;;;;;;;19.90;99.90;;;;;;4955890;29;20017;-77
2021/03/28 14:15:24;;;;;;;;;;;19.90;99.90;;;;;;4955999;29;19941;-79
2021/03/28 14:17:53;;;;;;;;;;;19.90;99.90;;;;;;4955493;29;19922;-79
2021/03/28 14:20:35;;;;;;;;;;;19.90;99.90;;;;;;4955812;29;19910;-79
2021/03/28 14:23:01;;;;;;;;;;;19.90;99.90;;;;;;4955711;29;19910;-79
2021/03/28 14:25:32;;;;;;;;;;;19.90;99.90;;;;;;4955449;29;20407;-78
2021/03/28 14:28:18;;;;;;;;;;;19.90;99.90;;;;;;4955563;29;19910;-80
2021/03/28 14:30:45;;;;;;;;;;;19.90;99.90;;;;;;4955477;29;19950;-78
2021/03/28 14:33:23;;;;;;;;;;;19.80;99.90;;;;;;4937845;29;19948;-79
2021/03/28 14:36:08;;;;;;;;;;;19.80;99.90;;;;;;4950655;29;19921;-78
2021/03/28 14:38:53;;;;;;;;;;;19.80;99.90;;;;;;4953468;29;19917;-80
2021/03/28 14:41:26;;;;;;;;;;;19.80;99.90;;;;;;4934717;29;20059;-78
2021/03/28 14:44:11;;;;;;;;;;;19.80;99.90;;;;;;4919303;29;20330;-78
2021/03/28 14:46:43;;;;;;;;;;;19.80;99.90;;;;;;4939539;29;20016;-79
2021/03/28 14:49:31;;;;;;;;;;;19.80;99.90;;;;;;4955234;29;19995;-79
2021/03/28 14:52:16;;;;;;;;;;;19.80;99.90;;;;;;4938083;29;20021;-77
2021/03/28 14:54:42;;;;;;;;;;;19.80;99.90;;;;;;4954576;29;19910;-78
2021/03/28 14:57:21;;;;;;;;;;;19.80;99.90;;;;;;4937975;29;19930;-79
2021/03/28 14:59:55;;;;;;;;;;;19.70;99.90;;;;;;4938561;29;19915;-79
2021/03/28 15:02:40;;;;;;;;;;;19.60;99.90;;;;;;4954640;28;19926;-78
2021/03/28 15:05:10;;;;;;;;;;;19.60;99.90;;;;;;4954836;29;19919;-79
2021/03/28 15:07:39;;;;;;;;;;;19.60;99.90;;;;;;4955084;29;19914;-78
2021/03/28 15:10:24;;;;;;;;;;;19.60;99.90;;;;;;4955104;29;19914;-79
2021/03/28 15:12:56;;;;;;;;;;;19.60;99.90;;;;;;4936198;29;19923;-79
2021/03/28 15:15:32;;;;;;;;;;;19.60;99.90;;;;;;4923359;29;19911;-80